Time;durP1;ratioP1;P1;durP2;ratioP2;P2;SDS_P1;SDS_P2;PMS_P1;PMS_P2;Temp;Humidity;BMP_temperature;BMP_pressure;BME280_temperature;BME280_humidity;BME280_pressure;Samples;Min_cycle;Max_cycle;Signal;HPM_P1;HPM_P2
2023/09/18 00:00:12;;;;;;;6.00;5.20;;;;;;;22.86;40.03;102271.19;105854;1285;22532;-56
2023/09/18 00:02:40;;;;;;;5.80;5.00;;;;;;;22.87;39.99;102274.70;106003;1282;24200;-56
2023/09/18 00:05:08;;;;;;;6.10;4.90;;;;;;;22.87;39.78;102273.29;105986;1278;314395;-56
2023/09/18 00:07:36;;;;;;;6.50;4.80;;;;;;;22.86;39.80;102271.91;106079;1269;22608;-56
2023/09/18 00:10:05;;;;;;;5.50;4.90;;;;;;;22.86;39.96;102277.20;106406;1280;22546;-56
2023/09/18 00:12:32;;;;;;;6.80;5.00;;;;;;;22.86;40.36;102278.48;106034;1280;25383;-56
2023/09/18 00:15:00;;;;;;;10.50;5.10;;;;;;;22.86;40.64;102275.43;106441;1266;22554;-56
2023/09/18 00:17:28;;;;;;;5.90;5.30;;;;;;;22.87;40.70;102273.11;105890;1273;22568;-56
2023/09/18 00:19:56;;;;;;;6.10;5.00;;;;;;;22.87;40.77;102271.71;106073;1283;22537;-56
2023/09/18 00:22:24;;;;;;;6.00;4.80;;;;;;;22.88;40.47;102269.67;106144;1280;25284;-56
2023/09/18 00:24:52;;;;;;;5.40;4.90;;;;;;;22.89;40.39;102271.25;106087;1274;25285;-57
2023/09/18 00:27:20;;;;;;;7.90;5.20;;;;;;;22.90;40.49;102269.42;106424;1272;22540;-56
2023/09/18 00:29:48;;;;;;;5.80;4.90;;;;;;;22.90;40.44;102267.83;106402;1261;22532;-56
2023/09/18 00:32:16;;;;;;;5.20;4.70;;;;;;;22.91;40.47;102263.73;106353;1272;22540;-56
2023/09/18 00:34:44;;;;;;;5.50;4.80;;;;;;;22.91;40.89;102265.48;106329;1274;22563;-56
2023/09/18 00:37:12;;;;;;;8.10;4.90;;;;;;;22.91;41.36;102267.93;106357;1263;25321;-56
2023/09/18 00:39:42;;;;;;;5.30;4.80;;;;;;;22.91;41.44;102273.80;106254;1271;22640;-56
2023/09/18 00:42:13;;;;;;;5.90;5.00;;;;;;;22.90;41.41;102275.76;106452;1261;25419;-56
2023/09/18 00:44:41;;;;;;;;;;;;;;;22.90;41.82;102275.27;106204;1267;22519;-56
2023/09/18 00:47:09;;;;;;;5.00;4.60;;;;;;;22.90;41.95;102276.50;106233;1266;25399;-56
2023/09/18 00:49:38;;;;;;;5.40;4.90;;;;;;;22.89;42.63;102276.17;106248;1267;24188;-56
2023/09/18 00:52:06;;;;;;;5.70;5.20;;;;;;;22.89;42.97;102275.48;106404;1260;22579;-57
2023/09/18 00:54:35;;;;;;;5.90;4.50;;;;;;;22.89;43.00;102274.61;106256;1263;24378;-56
2023/09/18 00:57:03;;;;;;;5.40;4.90;;;;;;;22.79;43.03;102269.80;106356;1263;22635;-56
2023/09/18 00:59:31;;;;;;;5.70;4.90;;;;;;;22.81;42.89;102266.13;106369;1261;22536;-56
2023/09/18 01:01:59;;;;;;;5.50;5.00;;;;;;;22.82;42.64;102263.27;106329;1275;22533;-56
2023/09/18 01:04:28;;;;;;;8.20;4.90;;;;;;;22.86;42.60;102263.95;106512;1269;22529;-56
2023/09/18 01:06:57;;;;;;;6.80;5.10;;;;;;;22.88;41.96;102261.71;106276;1264;22651;-56
2023/09/18 01:09:25;;;;;;;5.60;5.10;;;;;;;22.88;41.67;102256.58;106619;1273;22528;-55
2023/09/18 01:12:15;;;;;;;5.20;4.70;;;;;;;22.89;41.37;102260.44;106147;1277;22539;-56
2023/09/18 01:14:54;;;;;;;6.50;4.60;;;;;;;22.90;40.43;102259.34;106444;1260;22528;-56
2023/09/18 01:17:22;;;;;;;6.30;4.60;;;;;;;22.91;40.14;102258.94;106547;1273;22533;-57
2023/09/18 01:19:49;;;;;;;5.10;4.60;;;;;;;22.92;40.32;102263.13;106469;1263;22556;-58
2023/09/18 01:22:19;;;;;;;5.70;4.20;;;;;;;22.92;40.40;102267.00;106465;1264;22537;-56
2023/09/18 01:24:47;;;;;;;5.20;4.80;;;;;;;22.94;40.20;102271.53;106338;1262;23859;-56
2023/09/18 01:27:17;;;;;;;4.90;4.40;;;;;;;22.94;40.51;102267.25;106320;1271;22531;-56
2023/09/18 01:29:45;;;;;;;5.20;4.50;;;;;;;22.96;40.67;102267.87;106308;1263;24415;-56
2023/09/18 01:32:13;;;;;;;4.70;4.30;;;;;;;22.97;40.69;102268.17;106373;1264;22553;-56
2023/09/18 01:34:46;;;;;;;6.00;4.30;;;;;;;22.97;40.69;102269.40;106221;1263;25383;-56
2023/09/18 01:37:21;;;;;;;5.10;4.30;;;;;;;22.98;40.42;102269.73;106120;1264;22640;-56
2023/09/18 01:39:49;;;;;;;5.10;4.50;;;;;;;22.98;39.97;102270.41;106772;1257;27073;-56
2023/09/18 01:42:18;;;;;;;4.80;4.30;;;;;;;22.99;39.83;102267.91;104068;1256;1003769;-57
2023/09/18 01:44:47;;;;;;;4.50;4.10;;;;;;;22.99;40.01;102267.02;106498;1260;22646;-56
2023/09/18 01:47:19;;;;;;;4.90;4.40;;;;;;;22.99;40.31;102268.77;106741;1260;22538;-56
2023/09/18 01:55:32;;;;;;;5.30;4.80;;;;;;;22.99;41.09;102271.61;104376;1290;544937;-55
2023/09/18 01:58:00;;;;;;;6.50;4.90;;;;;;;22.96;41.32;102273.16;105892;1277;22545;-55
2023/09/18 02:00:28;;;;;;;5.20;4.70;;;;;;;22.95;41.49;102269.53;105876;1274;22546;-56
2023/09/18 02:02:57;;;;;;;9.40;5.10;;;;;;;22.93;41.71;102266.27;105837;1274;24280;-56
2023/09/18 02:05:41;;;;;;;7.20;5.00;;;;;;;22.90;41.82;102263.92;105933;1272;22554;-57
2023/09/18 02:08:09;;;;;;;5.80;5.30;;;;;;;22.88;42.06;102264.37;105663;1271;278711;-56
2023/09/18 02:10:37;;;;;;;6.00;5.30;;;;;;;22.86;42.13;102265.21;105938;1269;22535;-56
2023/09/18 02:13:05;;;;;;;6.30;5.70;;;;;;;22.83;42.18;102266.74;105888;1271;22546;-55
2023/09/18 02:15:35;;;;;;;7.10;5.20;;;;;;;22.80;42.47;102264.60;105602;1282;22542;-56
2023/09/18 02:18:03;;;;;;;5.60;5.10;;;;;;;22.77;42.97;102264.41;105847;1270;24923;-56
2023/09/18 02:20:31;;;;;;;5.80;5.30;;;;;;;22.74;43.27;102266.67;105972;1268;25410;-56
2023/09/18 02:23:00;;;;;;;6.90;5.60;;;;;;;22.71;43.74;102266.67;106177;1278;23000;-56
2023/09/18 02:25:28;;;;;;;6.00;5.50;;;;;;;22.68;44.15;102266.80;106017;1269;22759;-56
2023/09/18 02:27:55;;;;;;;6.70;5.50;;;;;;;22.64;44.69;102266.41;106003;1271;22543;-56
2023/09/18 02:30:23;;;;;;;8.30;5.90;;;;;;;22.62;45.16;102264.23;106045;1268;22627;-56
2023/09/18 02:32:53;;;;;;;5.80;5.20;;;;;;;22.59;45.42;102272.15;106014;1268;22589;-56
2023/09/18 02:35:21;;;;;;;6.40;5.60;;;;;;;22.57;45.65;102265.16;106079;1264;22539;-56
2023/09/18 02:37:49;;;;;;;6.20;5.50;;;;;;;22.53;45.71;102272.38;106023;1269;25345;-56
2023/09/18 02:40:16;;;;;;;7.40;5.90;;;;;;;22.51;45.92;102270.02;106085;1271;22535;-56
2023/09/18 02:42:44;;;;;;;7.80;5.70;;;;;;;22.49;46.29;102274.19;106008;1266;22539;-56
2023/09/18 02:45:12;;;;;;;6.60;6.00;;;;;;;22.48;46.64;102272.48;106025;1263;22540;-56
2023/09/18 02:47:41;;;;;;;6.20;5.50;;;;;;;22.48;47.10;102274.41;106015;1278;23913;-56
2023/09/18 02:50:10;;;;;;;7.50;5.80;;;;;;;22.49;47.54;102272.60;106045;1280;24249;-56
2023/09/18 02:52:38;;;;;;;6.20;5.60;;;;;;;22.50;47.38;102272.91;106090;1268;22536;-56
2023/09/18 02:55:09;;;;;;;6.80;5.50;;;;;;;22.51;47.16;102274.96;105837;1273;25452;-56
2023/09/18 02:57:37;;;;;;;7.50;5.70;;;;;;;22.53;47.24;102278.76;105902;1268;25376;-56
2023/09/18 03:00:06;;;;;;;7.40;6.50;;;;;;;22.56;47.49;102285.19;105858;1266;23009;-57
2023/09/18 03:02:33;;;;;;;6.30;5.70;;;;;;;22.59;47.72;102284.19;104927;1272;1003789;-56
2023/09/18 03:05:02;;;;;;;6.40;5.50;;;;;;;22.61;47.53;102276.29;105537;1273;25302;-56
2023/09/18 03:07:30;;;;;;;6.30;5.70;;;;;;;22.63;47.41;102276.57;105751;1271;22523;-56
2023/09/18 03:09:58;;;;;;;8.70;6.30;;;;;;;22.64;47.65;102275.27;106057;1271;23907;-56
2023/09/18 03:12:26;;;;;;;10.80;7.20;;;;;;;22.65;48.04;102275.58;105923;1271;24367;-55
2023/09/18 03:14:54;;;;;;;7.80;6.50;;;;;;;22.66;48.32;102279.61;105928;1271;25274;-55
2023/09/18 03:17:22;;;;;;;7.50;6.40;;;;;;;22.67;48.59;102277.10;105788;1271;26518;-55
2023/09/18 03:19:50;;;;;;;7.20;6.40;;;;;;;22.68;48.95;102278.13;106015;1271;24274;-55
2023/09/18 03:22:18;;;;;;;8.50;6.60;;;;;;;22.68;49.17;102280.75;105823;1275;22562;-57
2023/09/18 03:24:47;;;;;;;7.00;6.30;;;;;;;22.68;49.27;102280.23;105806;1267;22547;-55
2023/09/18 03:27:15;;;;;;;8.90;6.90;;;;;;;22.68;49.58;102279.20;105980;1275;22537;-55
2023/09/18 03:29:43;;;;;;;7.40;6.70;;;;;;;22.67;49.85;102280.13;105984;1268;24262;-56
2023/09/18 03:32:12;;;;;;;10.80;6.70;;;;;;;22.64;50.18;102280.19;105934;1273;22653;-56
2023/09/18 03:34:40;;;;;;;7.80;7.10;;;;;;;22.63;50.35;102280.98;105939;1265;24221;-56
2023/09/18 03:37:09;;;;;;;9.90;7.50;;;;;;;22.61;50.41;102284.27;105959;1283;22544;-56
2023/09/18 03:39:37;;;;;;;7.70;6.40;;;;;;;22.59;50.25;102286.14;105975;1267;22549;-56
2023/09/18 03:42:06;;;;;;;8.40;7.60;;;;;;;22.54;50.18;102287.38;105635;1284;22526;-56
2023/09/18 03:44:34;;;;;;;8.50;7.60;;;;;;;22.50;50.22;102284.40;106162;1265;22579;-56
2023/09/18 03:47:03;;;;;;;8.00;7.20;;;;;;;22.45;50.47;102289.92;106104;1265;22542;-56
2023/09/18 03:49:31;;;;;;;12.60;7.30;;;;;;;22.41;50.55;102290.33;106085;1276;24380;-56
2023/09/18 03:51:58;;;;;;;8.50;7.60;;;;;;;22.35;50.71;102287.23;106080;1279;26623;-56
2023/09/18 03:54:27;;;;;;;7.70;6.90;;;;;;;22.32;50.80;102290.58;106313;1265;22588;-56
2023/09/18 03:56:55;;;;;;;11.40;7.40;;;;;;;22.27;51.06;102287.26;106287;1261;26599;-56
2023/09/18 03:59:22;;;;;;;12.00;7.80;;;;;;;22.24;51.31;102290.23;106392;1261;22519;-56
2023/09/18 04:01:50;;;;;;;10.00;6.80;;;;;;;22.23;51.60;102290.98;106134;1277;22524;-56
2023/09/18 04:04:18;;;;;;;11.40;6.80;;;;;;;22.23;51.56;102293.30;106441;1260;22532;-57
2023/09/18 04:06:46;;;;;;;10.40;7.30;;;;;;;22.21;51.88;102297.10;106470;1260;22638;-56
2023/09/18 04:09:15;;;;;;;7.90;7.20;;;;;;;22.19;52.10;102298.78;106477;1261;22601;-56
2023/09/18 04:11:43;;;;;;;8.10;7.20;;;;;;;22.16;52.21;102301.73;106450;1259;22598;-56
2023/09/18 04:14:10;;;;;;;7.70;6.70;;;;;;;22.14;52.31;102302.52;106448;1260;25293;-56
2023/09/18 04:16:41;;;;;;;11.20;7.50;;;;;;;22.12;52.57;102302.80;106401;1260;25214;-56
2023/09/18 04:19:09;;;;;;;8.70;7.80;;;;;;;22.10;52.77;102310.34;106433;1262;22538;-56
2023/09/18 04:21:38;;;;;;;10.50;7.60;;;;;;;22.07;53.02;102310.46;106532;1262;22566;-56
2023/09/18 04:24:06;;;;;;;9.00;7.50;;;;;;;22.04;53.11;102310.41;106237;1268;25227;-56
2023/09/18 04:26:34;;;;;;;13.20;8.70;;;;;;;22.01;53.21;102305.96;106478;1260;22530;-56
2023/09/18 04:29:01;;;;;;;8.50;7.50;;;;;;;22.00;53.46;102304.96;106255;1273;24262;-56
2023/09/18 04:31:30;;;;;;;9.70;8.50;;;;;;;21.98;53.72;102304.52;106246;1265;22965;-56
2023/09/18 04:33:59;;;;;;;10.80;7.70;;;;;;;21.97;54.15;102304.38;106050;1266;22559;-56
2023/09/18 04:36:27;;;;;;;10.30;7.70;;;;;;;21.97;54.39;102304.36;105983;1268;22563;-57
2023/09/18 04:38:54;;;;;;;9.40;7.70;;;;;;;22.00;54.63;102305.14;106074;1274;22583;-57
2023/09/18 04:41:22;;;;;;;10.00;8.00;;;;;;;22.01;54.89;102305.27;105931;1266;22535;-57
2023/09/18 04:43:51;;;;;;;9.00;8.10;;;;;;;22.03;55.11;102296.13;106000;1267;25308;-56
2023/09/18 04:46:19;;;;;;;12.30;8.40;;;;;;;22.07;55.23;102300.39;106047;1266;22539;-57
2023/09/18 04:48:47;;;;;;;12.10;7.90;;;;;;;22.11;55.35;102299.50;106059;1276;22546;-57
2023/09/18 04:51:15;;;;;;;10.60;8.60;;;;;;;22.15;55.34;102298.08;106010;1277;22536;-56
2023/09/18 04:53:43;;;;;;;11.50;8.20;;;;;;;22.18;55.41;102293.50;105957;1276;22547;-57
2023/09/18 04:56:11;;;;;;;10.80;7.70;;;;;;;22.23;55.50;102294.52;106029;1268;22543;-56
2023/09/18 04:58:39;;;;;;;9.60;8.20;;;;;;;22.27;55.69;102290.98;106193;1269;22554;-56
2023/09/18 05:01:07;;;;;;;10.60;8.10;;;;;;;22.30;55.79;102294.01;106107;1274;22540;-56
2023/09/18 05:09:06;;;;;;;8.70;7.80;;;;;;;22.48;56.59;102296.90;103588;1299;545917;-57
2023/09/18 05:11:34;;;;;;;9.70;7.40;;;;;;;22.52;56.97;102298.28;105768;1271;22546;-56
2023/09/18 05:14:02;;;;;;;10.00;8.10;;;;;;;22.58;57.17;102297.11;105590;1272;22543;-56
2023/09/18 05:16:30;;;;;;;8.20;7.50;;;;;;;22.64;57.37;102297.20;105766;1274;22542;-57
2023/09/18 05:19:02;;;;;;;;;;;;;;;22.70;57.49;102293.23;105709;1286;22550;-57
2023/09/18 05:21:30;;;;;;;9.80;7.80;;;;;;;22.74;57.61;102295.13;105478;1285;22553;-57
2023/09/18 05:23:58;;;;;;;12.20;8.30;;;;;;;22.79;57.75;102295.96;105465;1274;302043;-57
2023/09/18 05:26:26;;;;;;;10.60;8.30;;;;;;;22.89;57.69;102298.15;105839;1271;22533;-57
2023/09/18 05:28:54;;;;;;;13.70;7.90;;;;;;;22.99;57.54;102299.76;105474;1266;22558;-57
2023/09/18 05:31:22;;;;;;;7.90;7.10;;;;;;;23.09;57.62;102297.48;105866;1274;22547;-57
2023/09/18 05:33:50;;;;;;;8.70;7.10;;;;;;;23.19;58.20;102297.31;105794;1286;22540;-56
2023/09/18 05:36:18;;;;;;;9.20;7.30;;;;;;;23.28;58.69;102295.98;105837;1274;22560;-57
2023/09/18 05:38:46;;;;;;;8.10;7.30;;;;;;;23.39;58.78;102296.16;105974;1281;22588;-57
2023/09/18 05:41:13;;;;;;;12.60;7.80;;;;;;;23.48;58.85;102294.47;105679;1271;25097;-57
2023/09/18 05:43:41;;;;;;;9.50;8.50;;;;;;;23.57;58.67;102292.94;105774;1272;22532;-57
2023/09/18 05:46:09;;;;;;;7.70;7.10;;;;;;;23.67;58.51;102296.68;105981;1281;22540;-57
2023/09/18 05:48:37;;;;;;;9.30;7.30;;;;;;;23.75;58.23;102294.10;105952;1274;25244;-57
2023/09/18 05:51:05;;;;;;;8.40;7.20;;;;;;;23.84;58.24;102294.89;105943;1267;22535;-57
2023/09/18 05:53:34;;;;;;;7.90;7.00;;;;;;;23.95;58.09;102294.06;106023;1268;22539;-57
2023/09/18 05:56:03;;;;;;;10.50;7.00;;;;;;;24.07;57.68;102292.56;106063;1280;22561;-57
2023/09/18 05:58:32;;;;;;;7.70;6.80;;;;;;;24.18;57.49;102293.91;106052;1270;22590;-57
2023/09/18 06:01:00;;;;;;;10.50;7.70;;;;;;;24.29;57.41;102298.65;105995;1267;25566;-57
2023/09/18 06:03:30;;;;;;;8.50;6.90;;;;;;;24.44;57.21;102302.27;106128;1282;22544;-57
2023/09/18 06:05:58;;;;;;;12.40;7.10;;;;;;;24.60;56.81;102303.52;105961;1280;22547;-57
2023/09/18 06:08:26;;;;;;;11.60;8.30;;;;;;;24.73;56.59;102304.92;105999;1276;22764;-57
2023/09/18 06:10:55;;;;;;;7.50;6.80;;;;;;;24.85;56.33;102306.88;106099;1271;22556;-57
2023/09/18 06:13:26;;;;;;;9.80;7.50;;;;;;;24.96;56.01;102307.46;106057;1267;25242;-57
2023/09/18 06:15:54;;;;;;;10.90;7.60;;;;;;;25.09;55.57;102311.52;106219;1264;24401;-57
2023/09/18 06:18:22;;;;;;;7.30;6.60;;;;;;;25.20;55.24;102310.68;106265;1263;22585;-57
2023/09/18 06:20:50;;;;;;;7.70;6.90;;;;;;;25.19;54.97;102311.28;106239;1266;22625;-57
2023/09/18 06:23:18;;;;;;;8.50;6.50;;;;;;;25.34;54.48;102314.11;106235;1276;25406;-57
2023/09/18 06:25:46;;;;;;;8.80;6.30;;;;;;;25.48;54.23;102311.73;106256;1270;22571;-57
2023/09/18 06:28:14;;;;;;;11.20;7.90;;;;;;;25.59;53.60;102313.88;106211;1261;22535;-57
2023/09/18 06:30:42;;;;;;;11.60;8.40;;;;;;;25.68;53.44;102313.50;106129;1270;25295;-57
2023/09/18 06:33:12;;;;;;;8.90;7.90;;;;;;;25.75;53.03;102317.52;106219;1275;25002;-56
2023/09/18 06:35:41;;;;;;;12.00;8.70;;;;;;;25.81;53.02;102318.06;106332;1263;22684;-56
2023/09/18 06:38:11;;;;;;;12.10;8.40;;;;;;;25.87;52.99;102316.30;106289;1279;25357;-57
2023/09/18 06:40:39;;;;;;;9.80;7.70;;;;;;;25.94;53.13;102315.14;106252;1263;24200;-56
2023/09/18 06:43:07;;;;;;;9.00;7.50;;;;;;;26.03;53.00;102310.13;106353;1263;22757;-56
2023/09/18 06:45:37;;;;;;;8.30;7.50;;;;;;;26.10;52.60;102312.02;106157;1273;22544;-57
2023/09/18 06:48:06;;;;;;;9.40;7.20;;;;;;;26.15;52.46;102316.16;106224;1267;24235;-57
2023/09/18 06:50:34;;;;;;;6.90;6.20;;;;;;;26.24;52.49;102317.94;106204;1262;25230;-56
2023/09/18 06:53:01;;;;;;;7.20;6.40;;;;;;;26.36;52.20;102318.77;106308;1263;24211;-57
2023/09/18 06:55:29;;;;;;;7.80;7.10;;;;;;;26.49;51.71;102323.74;106249;1273;22641;-57
2023/09/18 06:57:57;;;;;;;7.40;6.70;;;;;;;26.64;51.24;102324.42;106228;1273;22546;-57
2023/09/18 07:00:25;;;;;;;6.70;6.00;;;;;;;26.70;51.15;102323.69;106340;1263;22520;-57
2023/09/18 07:02:53;;;;;;;7.40;6.60;;;;;;;26.75;51.02;102326.90;106332;1264;22537;-57
2023/09/18 07:05:21;;;;;;;9.60;6.50;;;;;;;26.85;50.64;102328.38;106408;1268;22534;-57
2023/09/18 07:07:49;;;;;;;6.50;5.90;;;;;;;26.95;50.55;102333.23;106366;1275;22533;-57
2023/09/18 07:10:17;;;;;;;7.50;5.90;;;;;;;27.05;50.02;102333.29;106199;1263;22536;-57
2023/09/18 07:12:45;;;;;;;6.40;5.70;;;;;;;27.14;49.16;102331.76;106337;1267;22542;-56
2023/09/18 07:15:12;;;;;;;6.50;5.20;;;;;;;27.21;48.32;102330.77;106191;1265;22611;-57
2023/09/18 07:17:40;;;;;;;6.30;5.70;;;;;;;27.26;48.16;102333.50;106151;1272;22597;-57
2023/09/18 07:20:13;;;;;;;6.30;5.70;;;;;;;27.27;47.88;102331.60;106247;1275;22548;-57
2023/09/18 07:22:47;;;;;;;7.10;5.50;;;;;;;27.25;47.73;102331.94;106062;1267;22916;-58
2023/09/18 07:25:15;;;;;;;6.80;6.20;;;;;;;27.26;47.39;102333.11;106209;1263;22536;-57
2023/09/18 07:27:46;;;;;;;7.00;6.30;;;;;;;27.28;47.25;102336.05;106279;1264;24246;-57
2023/09/18 07:30:19;;;;;;;7.10;6.40;;;;;;;27.22;47.63;102335.55;106271;1267;22546;-56
2023/09/18 07:32:47;;;;;;;6.40;5.70;;;;;;;27.17;47.82;102336.73;106257;1274;22595;-56
2023/09/18 07:35:15;;;;;;;6.10;5.60;;;;;;;27.16;47.82;102342.86;106195;1276;22538;-56
2023/09/18 07:37:45;;;;;;;6.40;5.80;;;;;;;27.01;47.72;102341.91;106269;1265;22529;-57
2023/09/18 07:40:13;;;;;;;5.60;5.10;;;;;;;26.94;48.02;102343.67;106023;1265;22573;-56
2023/09/18 07:42:43;;;;;;;8.70;6.20;;;;;;;26.88;48.36;102345.66;106074;1275;25297;-56
2023/09/18 07:45:12;;;;;;;6.50;5.90;;;;;;;26.82;48.09;102345.89;106313;1263;22538;-56
2023/09/18 07:47:39;;;;;;;5.70;5.10;;;;;;;26.78;48.63;102347.02;106210;1277;22544;-56
2023/09/18 07:50:08;;;;;;;8.20;5.60;;;;;;;26.75;48.97;102348.66;106223;1263;22566;-56
2023/09/18 07:52:36;;;;;;;9.00;6.30;;;;;;;26.73;49.00;102348.27;106253;1268;22541;-56
2023/09/18 07:55:05;;;;;;;6.50;5.50;;;;;;;26.71;49.40;102347.79;106285;1278;25257;-56
2023/09/18 07:57:34;;;;;;;6.70;6.10;;;;;;;26.70;49.68;102348.60;106110;1276;22548;-57
2023/09/18 08:00:07;;;;;;;7.40;5.90;;;;;;;26.68;50.30;102349.44;106248;1276;24214;-57
2023/09/18 08:02:41;;;;;;;6.80;6.10;;;;;;;26.67;50.86;102350.04;106163;1268;22543;-56
2023/09/18 08:05:10;;;;;;;7.10;6.40;;;;;;;26.68;51.15;102351.27;106223;1263;22533;-56
2023/09/18 08:07:38;;;;;;;8.20;6.50;;;;;;;26.68;51.36;102353.67;106213;1262;26573;-57
2023/09/18 08:10:08;;;;;;;7.70;6.30;;;;;;;26.69;51.31;102355.58;106274;1273;25351;-56
2023/09/18 08:12:36;;;;;;;7.00;6.30;;;;;;;26.69;51.15;102356.45;106065;1276;25416;-57
2023/09/18 08:15:06;;;;;;;7.90;6.50;;;;;;;26.71;51.54;102357.41;106025;1280;22548;-56
2023/09/18 08:21:04;;;;;;;7.10;6.40;;;;;;;26.80;51.41;102357.94;103626;1306;545139;-57
2023/09/18 08:23:32;;;;;;;7.60;6.70;;;;;;;26.83;51.53;102352.59;106176;1270;22547;-57
2023/09/18 08:26:01;;;;;;;7.40;5.70;;;;;;;26.89;51.40;102358.05;106176;1272;22533;-56
2023/09/18 08:28:29;;;;;;;6.50;5.70;;;;;;;26.98;50.81;102360.65;106005;1283;25243;-56
2023/09/18 08:30:58;;;;;;;6.90;5.50;;;;;;;27.07;50.24;102355.95;105651;1272;24242;-56
2023/09/18 08:33:26;;;;;;;7.20;6.20;;;;;;;27.16;49.66;102358.02;105904;1272;22567;-57
2023/09/18 08:35:54;;;;;;;7.00;5.60;;;;;;;27.24;49.44;102356.05;105680;1282;312109;-57
2023/09/18 08:38:22;;;;;;;5.90;5.30;;;;;;;27.30;49.07;102356.52;105849;1271;22535;-56
2023/09/18 08:40:53;;;;;;;7.90;5.50;;;;;;;27.37;49.12;102355.06;105683;1285;22530;-56
2023/09/18 08:43:21;;;;;;;6.60;5.80;;;;;;;27.45;49.21;102353.13;106394;1263;22634;-56
2023/09/18 08:45:52;;;;;;;6.10;5.50;;;;;;;27.51;49.31;102352.88;106237;1264;22644;-57
2023/09/18 08:48:20;;;;;;;7.20;6.20;;;;;;;27.57;49.10;102349.45;106511;1261;22537;-58
2023/09/18 08:50:48;;;;;;;6.90;6.00;;;;;;;27.63;48.91;102350.59;106525;1273;22540;-58
2023/09/18 08:53:16;;;;;;;6.30;5.70;;;;;;;27.69;49.01;102350.72;106456;1263;22540;-56
2023/09/18 08:55:44;;;;;;;6.80;6.20;;;;;;;27.75;49.32;102351.06;106326;1276;22529;-58
2023/09/18 08:58:12;;;;;;;7.00;6.30;;;;;;;27.78;49.30;102354.39;106342;1257;24227;-57
2023/09/18 09:00:39;;;;;;;7.60;6.00;;;;;;;27.81;48.84;102355.08;106147;1265;22538;-57
2023/09/18 09:03:07;;;;;;;7.20;6.50;;;;;;;27.84;48.82;102353.44;106355;1262;22522;-57
2023/09/18 09:05:35;;;;;;;6.30;5.70;;;;;;;27.87;48.65;102359.46;106448;1273;22529;-57
2023/09/18 09:08:03;;;;;;;7.20;6.20;;;;;;;27.91;48.36;102352.96;106270;1272;25328;-58
2023/09/18 09:10:31;;;;;;;8.10;6.20;;;;;;;27.95;48.27;102354.97;106278;1263;22529;-57
2023/09/18 09:13:00;;;;;;;7.00;6.30;;;;;;;27.99;47.94;102354.01;106385;1262;22546;-58
2023/09/18 09:15:29;;;;;;;6.20;5.70;;;;;;;28.03;47.87;102353.20;106344;1272;22546;-58
2023/09/18 09:18:08;;;;;;;7.60;5.60;;;;;;;28.07;47.95;102356.65;106313;1262;22529;-58
2023/09/18 09:20:37;;;;;;;6.10;5.50;;;;;;;28.10;47.54;102354.46;105995;1280;25405;-58
2023/09/18 09:23:06;;;;;;;6.30;5.70;;;;;;;28.13;47.57;102357.33;106483;1273;22627;-55
2023/09/18 09:25:34;;;;;;;6.50;5.90;;;;;;;28.17;47.29;102358.47;106346;1263;22549;-56
2023/09/18 09:28:04;;;;;;;6.10;5.60;;;;;;;28.21;46.97;102355.15;106276;1257;25486;-57
2023/09/18 09:30:33;;;;;;;6.30;5.70;;;;;;;28.24;46.74;102354.35;106305;1273;22528;-57
2023/09/18 09:33:03;;;;;;;5.70;5.10;;;;;;;28.29;46.42;102352.94;106330;1279;23013;-56
2023/09/18 09:35:33;;;;;;;6.30;5.70;;;;;;;28.33;46.48;102353.35;106484;1279;22548;-57
2023/09/18 09:38:06;;;;;;;6.50;5.90;;;;;;;28.38;46.20;102354.64;106307;1275;22603;-56
2023/09/18 09:40:38;;;;;;;6.60;6.00;;;;;;;28.39;45.74;102357.02;106153;1280;22545;-57
2023/09/18 09:46:30;;;;;;;5.80;5.30;;;;;;;28.37;45.67;102354.52;104069;1293;545126;-57
2023/09/18 09:49:02;;;;;;;8.00;5.70;;;;;;;28.29;45.47;102357.07;106360;1280;22533;-57
2023/09/18 09:51:31;;;;;;;5.60;5.20;;;;;;;28.29;45.43;102359.92;106666;1257;23107;-57
2023/09/18 09:54:00;;;;;;;8.70;5.30;;;;;;;28.30;44.93;102356.83;106703;1260;22572;-57
2023/09/18 09:56:48;;;;;;;6.30;5.70;;;;;;;28.31;44.81;102354.77;106654;1273;25332;-57
2023/09/18 09:59:18;;;;;;;5.50;5.00;;;;;;;28.34;44.61;102350.48;106422;1272;311347;-56
2023/09/18 10:01:48;;;;;;;7.20;5.80;;;;;;;28.36;44.50;102350.51;106497;1263;23738;-56
2023/09/18 10:04:18;;;;;;;8.70;5.20;;;;;;;28.38;44.47;102348.94;106665;1274;22526;-57
2023/09/18 10:06:55;;;;;;;8.00;5.90;;;;;;;28.40;44.47;102344.31;106670;1276;22545;-56
2023/09/18 10:09:23;;;;;;;5.90;5.40;;;;;;;28.42;44.00;102343.79;106517;1274;22529;-56
2023/09/18 10:11:52;;;;;;;5.30;4.80;;;;;;;28.44;43.75;102344.21;106479;1274;25275;-56
2023/09/18 10:14:21;;;;;;;6.30;5.70;;;;;;;28.44;43.60;102340.11;106532;1261;22514;-57
2023/09/18 10:16:54;;;;;;;7.00;5.40;;;;;;;28.45;43.33;102338.21;106608;1273;22539;-56
2023/09/18 10:19:28;;;;;;;5.50;5.00;;;;;;;28.45;42.84;102340.34;106237;1264;25440;-56
2023/09/18 10:22:05;;;;;;;5.80;4.90;;;;;;;28.40;42.55;102335.55;106367;1263;22618;-56
2023/09/18 10:24:36;;;;;;;7.10;5.20;;;;;;;28.45;42.61;102332.33;106419;1273;24204;-56
2023/09/18 10:27:06;;;;;;;5.40;4.90;;;;;;;28.46;42.57;102329.73;106515;1273;23133;-56
2023/09/18 10:29:34;;;;;;;5.70;5.10;;;;;;;28.44;42.26;102330.96;106260;1263;25440;-56
2023/09/18 10:32:04;;;;;;;5.10;4.60;;;;;;;28.46;42.29;102331.58;106546;1273;25328;-56
2023/09/18 10:34:33;;;;;;;6.90;5.10;;;;;;;28.47;42.44;102329.85;106618;1260;25228;-56
2023/09/18 10:37:06;;;;;;;5.50;4.80;;;;;;;28.48;42.56;102327.46;106427;1266;24301;-56
2023/09/18 10:39:35;;;;;;;6.10;5.50;;;;;;;28.48;42.29;102323.89;106382;1273;22537;-56
2023/09/18 10:42:06;;;;;;;7.80;5.00;;;;;;;28.47;42.18;102323.77;106455;1273;23902;-56
2023/09/18 10:44:35;;;;;;;5.70;5.20;;;;;;;28.46;41.89;102319.79;106389;1260;22556;-56
2023/09/18 10:47:05;;;;;;;5.80;5.30;;;;;;;28.47;41.77;102322.69;106470;1261;22545;-57
2023/09/18 10:49:35;;;;;;;6.30;5.70;;;;;;;28.60;41.45;102323.27;106460;1272;25512;-56
2023/09/18 10:52:03;;;;;;;5.70;5.20;;;;;;;28.58;41.13;102321.02;106289;1273;25236;-57
2023/09/18 10:54:32;;;;;;;6.00;5.30;;;;;;;28.56;41.23;102321.73;106093;1279;22558;-56
2023/09/18 10:57:01;;;;;;;5.40;4.90;;;;;;;28.53;41.38;102318.38;106467;1272;25353;-56
2023/09/18 10:59:30;;;;;;;5.80;4.90;;;;;;;28.51;40.94;102315.81;106599;1273;25300;-56
2023/09/18 11:02:05;;;;;;;5.20;4.70;;;;;;;28.51;41.13;102315.47;106279;1260;25709;-56
2023/09/18 11:04:33;;;;;;;5.40;5.00;;;;;;;28.50;41.37;102311.95;106546;1257;22528;-56
2023/09/18 11:07:01;;;;;;;5.00;4.50;;;;;;;28.51;41.26;102314.56;106316;1273;22602;-56
2023/09/18 11:09:43;;;;;;;5.80;5.30;;;;;;;28.52;41.03;102312.89;106494;1263;22570;-56
2023/09/18 11:12:11;;;;;;;5.50;5.00;;;;;;;28.54;40.87;102312.20;106296;1275;22525;-57
2023/09/18 11:14:46;;;;;;;6.70;4.90;;;;;;;28.54;40.60;102312.02;106376;1260;23984;-57
2023/09/18 11:17:34;;;;;;;5.00;4.60;;;;;;;28.53;40.86;102311.91;106388;1277;24125;-56
2023/09/18 11:20:17;;;;;;;6.10;5.50;;;;;;;28.52;41.08;102315.05;106388;1273;25359;-57
2023/09/18 11:22:49;;;;;;;5.30;4.80;;;;;;;28.51;41.00;102317.10;106262;1276;24054;-57
2023/09/18 11:25:37;;;;;;;7.90;5.10;;;;;;;28.49;41.31;102315.06;106540;1257;25265;-56
2023/09/18 11:28:08;;;;;;;6.00;5.50;;;;;;;28.48;41.08;102309.09;106631;1273;22550;-55
2023/09/18 11:30:36;;;;;;;6.10;5.40;;;;;;;28.48;41.26;102310.86;106456;1260;22537;-56
2023/09/18 11:33:05;;;;;;;7.10;5.70;;;;;;;28.43;41.34;102309.60;106334;1276;25303;-56
2023/09/18 11:35:33;;;;;;;6.10;5.20;;;;;;;28.46;40.99;102307.79;106517;1258;22613;-56
2023/09/18 11:38:09;;;;;;;5.40;4.90;;;;;;;28.47;40.76;102307.95;106297;1263;22529;-57
2023/09/18 11:40:38;;;;;;;6.10;5.60;;;;;;;28.41;40.98;102304.42;106404;1273;22641;-56
2023/09/18 11:43:43;;;;;;;6.20;5.30;;;;;;;28.49;41.08;102303.45;106339;1277;24209;-56